Norton, MA (02766)

2:42 PM EDT on August 29, 2015 (GMT -0400)
Wheaton College | | Change Station
CLOSE
Current Station
Personal Weather Station
Location: Norton, MA
Elevation: 80 ft
Nearby Weather Stations

Elev 80 ft 41.97 °N, 71.18 °W | Updated 14 minutes ago

Partly Cloudy
Partly Cloudy
81.3 °F
Feels Like 82 °F
N
4.0
Wind Variable Wind from WSW
Gusts 8.0 mph

Today
High -- | Low -- °F
--% Chance of Precip.
Yesterday
High -- | Low -- °F
Precip. -- in
6:06 AM 7:23 PM
Full, 100% visible
Pressure 30.14 in
Visibility 10.0 miles
Clouds Mostly Cloudy 5000 ft
Heat Index 82 °F
Dew Point 62 °F
Humidity 53%
Rainfall 0.00 in
Snow Depth Not available.
UV 5 out of 12
Pollen 9.60 out of 12
Air Quality Not available.
Flu Activity Not available.
METAR KTAN 291752Z AUTO 22007KT 190V260 10SM BKN050 27/13 A3014 RMK AO2 SLP207 T02720133 10278 20178 58016
Pressure 30.14 in
Visibility 10.0 miles
Clouds Mostly Cloudy 5000 ft
Heat Index 82 °F
Dew Point 62 °F
Humidity 53%
Rainfall 0.00 in
Snow Depth Not available.
UV 5 out of 12
Pollen 9.60 out of 12
Air Quality Not available.
Flu Activity Not available.
METAR KTAN 291752Z AUTO 22007KT 190V260 10SM BKN050 27/13 A3014 RMK AO2 SLP207 T02720133 10278 20178 58016

10-Day Weather Forecast

×

Almanac

Astronomy

Aug. 29, 2015 Rise Set
Actual Time
Civil Twilight
Nautical Twilight
Astronomical Twilight
Moon
Length of Visible Light
Length of Day
Tomorrow will be .
, % of the Moon is Illuminated

Today's Extremes

State Highs State Lows

Community

WunderPhotos

Upload Photos

1,850,764 photos uploaded!

WunderBlogs® & News

Nearby

Air Quality

  Air Quality AQ Index Pollutant
Not available.

Snow Depth

Station Depth Elevation

Earthquake Activity

City Distance Mag. Time & Date
Minimum magnitude displayed is 2.5.

Coastal Water Temperatures

Place Temperature

Stations

Nearby Weather Stations

Station Location Temp. Windchill Dew Point Humidity Wind Precip. Elev Updated Type